Turners Station, Kentucky
Current Conditions -  °F | °C
As of 8:53 AM on Friday 28 Nov 2014 (Local Time) from KFFT Reporting Station
Overcast Overcast  
Wind Chill: 20°   Ceiling: 8500
Heat Index: 27°   Visibility: 10mi
Dew Point: 18°   Wind: 6mph
Humidity: 69%   Direction: 180°S
Pressure: 30.39"   Gusts: NA
Location:  38.56°N, 85.17°W
Report Text: KFFT 281353Z AUTO 18005KT 10SM OVC085 M03/M08 A3039 RMK AO2 SLP301 T10281078
Loading
Personal Weather Stations






























Interactive Weather Map New forecast layout! Learn more

10-Day Weather Forecast

Advertisements
Track Severe Weather on mobile